Time;durP1;ratioP1;P1;durP2;ratioP2;P2;SDS_P1;SDS_P2;PMS_P1;PMS_P2;Temp;Humidity;BMP_temperature;BMP_pressure;BME280_temperature;BME280_humidity;BME280_pressure;Samples;Min_cycle;Max_cycle;Signal;HPM_P1;HPM_P2
2022/07/09 00:00:39;;;;;;;10.55;5.95;;;;;;;;;;5014493;28;20046;-77
2022/07/09 00:03:05;;;;;;;13.63;5.95;;;;;;;;;;5014664;28;20573;-77
2022/07/09 00:05:31;;;;;;;9.88;6.07;;;;;;;;;;5014519;28;20067;-76
2022/07/09 00:07:57;;;;;;;9.90;5.75;;;;;;;;;;4997800;28;20527;-77
2022/07/09 00:10:23;;;;;;;11.02;6.53;;;;;;;;;;5014558;28;20073;-76
2022/07/09 00:12:49;;;;;;;13.80;7.05;;;;;;;;;;5015379;28;20072;-77
2022/07/09 00:15:15;;;;;;;12.52;6.22;;;;;;;;;;5014496;28;20045;-77
2022/07/09 00:17:41;;;;;;;15.23;7.05;;;;;;;;;;5016707;28;20461;-77
2022/07/09 00:20:08;;;;;;;12.63;6.30;;;;;;;;;;5018415;28;20050;-77
2022/07/09 00:22:34;;;;;;;13.27;6.38;;;;;;;;;;5018276;28;20049;-77
2022/07/09 00:25:01;;;;;;;14.52;6.70;;;;;;;;;;5017952;28;20835;-76
2022/07/09 00:27:27;;;;;;;15.65;6.72;;;;;;;;;;5019325;28;20037;-77
2022/07/09 00:29:53;;;;;;;14.43;6.72;;;;;;;;;;5017691;28;20136;-77
2022/07/09 00:32:20;;;;;;;12.00;6.57;;;;;;;;;;5018532;28;20072;-77
2022/07/09 00:34:46;;;;;;;14.10;7.20;;;;;;;;;;5017628;28;20053;-77
2022/07/09 00:37:12;;;;;;;13.77;5.82;;;;;;;;;;5018232;28;20375;-76
2022/07/09 00:39:39;;;;;;;17.60;7.72;;;;;;;;;;5001688;28;20045;-77
2022/07/09 00:42:09;;;;;;;13.07;6.50;;;;;;;;;;5001921;28;20038;-77
2022/07/09 00:44:35;;;;;;;16.15;6.82;;;;;;;;;;5017804;28;20052;-77
2022/07/09 00:47:02;;;;;;;13.70;6.95;;;;;;;;;;5017842;28;20494;-70
2022/07/09 00:49:30;;;;;;;13.23;5.68;;;;;;;;;;5001285;28;20041;-70
2022/07/09 00:51:56;;;;;;;16.65;6.63;;;;;;;;;;5017856;28;20502;-71
2022/07/09 00:54:23;;;;;;;16.35;6.70;;;;;;;;;;5001801;28;20122;-71
2022/07/09 00:56:50;;;;;;;16.73;6.53;;;;;;;;;;5018064;28;20081;-70
2022/07/09 00:59:16;;;;;;;13.35;6.20;;;;;;;;;;5001022;28;20135;-70
2022/07/09 01:01:42;;;;;;;15.45;6.47;;;;;;;;;;5017607;28;20048;-70
2022/07/09 01:04:09;;;;;;;14.27;6.63;;;;;;;;;;5017355;28;20490;-70
2022/07/09 01:06:35;;;;;;;12.40;7.25;;;;;;;;;;5017598;28;20068;-70
2022/07/09 01:09:01;;;;;;;15.80;7.43;;;;;;;;;;5017149;28;20053;-70
2022/07/09 01:11:27;;;;;;;15.60;7.72;;;;;;;;;;5026608;28;20040;-71
2022/07/09 01:13:54;;;;;;;15.60;7.40;;;;;;;;;;5000961;28;20049;-70
2022/07/09 01:16:20;;;;;;;17.27;8.05;;;;;;;;;;5001459;28;20456;-70
2022/07/09 01:18:47;;;;;;;11.57;6.63;;;;;;;;;;5000801;28;20100;-70
2022/07/09 01:21:13;;;;;;;18.13;7.15;;;;;;;;;;5017650;28;20521;-71
2022/07/09 01:23:39;;;;;;;14.57;6.97;;;;;;;;;;5016984;28;20124;-70
2022/07/09 01:26:06;;;;;;;12.05;7.57;;;;;;;;;;5020564;28;20041;-71
2022/07/09 01:28:32;;;;;;;17.58;7.30;;;;;;;;;;5016217;28;20490;-70
2022/07/09 01:30:59;;;;;;;14.88;8.20;;;;;;;;;;4985331;28;20076;-70
2022/07/09 01:33:25;;;;;;;15.20;7.78;;;;;;;;;;4997500;28;20042;-70
2022/07/09 01:35:51;;;;;;;15.10;7.63;;;;;;;;;;4997276;28;20049;-70
2022/07/09 01:38:18;;;;;;;17.73;7.68;;;;;;;;;;4997302;28;20133;-70
2022/07/09 01:40:44;;;;;;;14.00;7.43;;;;;;;;;;4980937;28;20568;-70
2022/07/09 01:43:10;;;;;;;14.27;7.57;;;;;;;;;;4996628;28;20038;-70
2022/07/09 01:45:36;;;;;;;14.75;7.82;;;;;;;;;;4997277;28;20116;-70
2022/07/09 01:48:02;;;;;;;15.02;7.95;;;;;;;;;;5000716;28;20111;-70
2022/07/09 01:50:28;;;;;;;14.98;7.45;;;;;;;;;;4997221;28;20390;-70
2022/07/09 01:52:54;;;;;;;18.65;7.72;;;;;;;;;;5000427;28;20121;-70
2022/07/09 01:55:20;;;;;;;14.68;7.68;;;;;;;;;;4980619;28;20045;-70
2022/07/09 01:57:46;;;;;;;15.27;7.30;;;;;;;;;;4996743;28;20034;-70
2022/07/09 02:00:13;;;;;;;17.90;7.70;;;;;;;;;;4980465;28;20077;-70
2022/07/09 02:02:39;;;;;;;14.25;7.38;;;;;;;;;;4990394;28;20033;-70
2022/07/09 02:05:05;;;;;;;15.57;7.70;;;;;;;;;;4996047;28;20394;-71
2022/07/09 02:07:32;;;;;;;13.75;7.30;;;;;;;;;;4995999;28;20130;-71
2022/07/09 02:09:59;;;;;;;15.93;7.32;;;;;;;;;;4996148;28;20041;-71
2022/07/09 02:12:25;;;;;;;18.10;7.97;;;;;;;;;;4996676;28;20038;-71
2022/07/09 02:14:51;;;;;;;14.25;6.93;;;;;;;;;;4996789;28;20518;-70
2022/07/09 02:17:18;;;;;;;14.35;7.68;;;;;;;;;;4996441;28;20120;-71
2022/07/09 02:19:44;;;;;;;15.55;7.68;;;;;;;;;;4980058;28;20069;-71
2022/07/09 02:22:10;;;;;;;14.07;7.57;;;;;;;;;;4996201;28;20034;-70
2022/07/09 02:24:36;;;;;;;12.93;7.43;;;;;;;;;;4996405;28;20045;-70
2022/07/09 02:27:02;;;;;;;14.75;7.07;;;;;;;;;;4995533;28;20049;-70
2022/07/09 02:29:28;;;;;;;14.50;7.47;;;;;;;;;;4983058;28;20517;-70
2022/07/09 02:31:57;;;;;;;13.52;7.15;;;;;;;;;;4999558;28;20081;-70
2022/07/09 02:34:24;;;;;;;11.98;6.88;;;;;;;;;;4999708;28;20045;-70
2022/07/09 02:36:51;;;;;;;13.07;7.18;;;;;;;;;;5016078;28;20486;-70
2022/07/09 02:39:17;;;;;;;13.45;6.60;;;;;;;;;;5015217;28;20045;-70
2022/07/09 02:41:43;;;;;;;14.82;6.72;;;;;;;;;;5015567;28;20498;-71
2022/07/09 02:44:09;;;;;;;15.98;7.10;;;;;;;;;;5015457;28;20486;-71
2022/07/09 02:46:35;;;;;;;11.80;6.78;;;;;;;;;;5015725;28;20037;-71
2022/07/09 02:49:02;;;;;;;13.48;7.25;;;;;;;;;;5015606;28;20474;-71
2022/07/09 02:51:28;;;;;;;12.90;5.15;;;;;;;;;;5032385;28;20060;-70
2022/07/09 02:53:54;;;;;;;9.45;5.85;;;;;;;;;;4999299;28;20045;-70
2022/07/09 02:56:20;;;;;;;11.73;5.70;;;;;;;;;;4998519;28;20045;-70
2022/07/09 02:58:47;;;;;;;13.02;6.22;;;;;;;;;;5015523;28;20049;-70
2022/07/09 03:01:13;;;;;;;11.05;6.60;;;;;;;;;;4998394;28;20049;-70
2022/07/09 03:03:39;;;;;;;15.27;6.25;;;;;;;;;;5033465;28;20108;-70
2022/07/09 03:06:07;;;;;;;13.02;6.72;;;;;;;;;;5014886;28;20117;-70
2022/07/09 03:08:34;;;;;;;12.55;6.50;;;;;;;;;;5015438;28;20046;-70
2022/07/09 03:11:00;;;;;;;9.75;6.35;;;;;;;;;;5032413;28;20037;-70
2022/07/09 03:13:26;;;;;;;11.30;6.68;;;;;;;;;;5032664;28;20473;-70
2022/07/09 03:15:52;;;;;;;10.02;5.80;;;;;;;;;;5015021;28;20037;-70
2022/07/09 03:18:18;;;;;;;9.68;6.72;;;;;;;;;;4998502;28;20033;-70
2022/07/09 03:20:44;;;;;;;9.88;5.95;;;;;;;;;;5015237;28;20544;-70
2022/07/09 03:23:13;;;;;;;13.93;7.20;;;;;;;;;;4998631;28;20398;-71
2022/07/09 03:25:39;;;;;;;13.25;6.82;;;;;;;;;;5032499;28;20116;-71
2022/07/09 03:28:05;;;;;;;13.38;6.65;;;;;;;;;;5014541;28;20052;-71
2022/07/09 03:30:31;;;;;;;11.73;7.32;;;;;;;;;;5014657;28;20057;-71
2022/07/09 03:32:57;;;;;;;12.55;7.00;;;;;;;;;;5015463;28;20553;-71
2022/07/09 03:35:24;;;;;;;11.55;6.75;;;;;;;;;;4998630;28;20136;-70
2022/07/09 03:37:50;;;;;;;13.48;8.13;;;;;;;;;;5014855;28;20049;-70
2022/07/09 03:40:16;;;;;;;11.68;6.95;;;;;;;;;;5031601;28;20033;-76
2022/07/09 03:42:42;;;;;;;11.15;6.57;;;;;;;;;;5032443;28;20391;-77
2022/07/09 03:45:08;;;;;;;14.57;7.50;;;;;;;;;;5014100;28;20041;-77
2022/07/09 03:47:34;;;;;;;14.02;7.57;;;;;;;;;;5014705;28;20045;-77
2022/07/09 03:50:01;;;;;;;14.77;7.55;;;;;;;;;;5032164;28;20043;-77
2022/07/09 03:52:27;;;;;;;12.88;7.40;;;;;;;;;;5013954;28;20033;-70
2022/07/09 03:54:53;;;;;;;12.02;7.25;;;;;;;;;;5032380;28;20498;-71
2022/07/09 03:57:19;;;;;;;12.10;6.95;;;;;;;;;;5014009;28;20069;-70
2022/07/09 03:59:45;;;;;;;13.52;7.15;;;;;;;;;;4999010;28;20041;-70
2022/07/09 04:02:11;;;;;;;11.90;6.78;;;;;;;;;;5013320;28;20124;-70
2022/07/09 04:04:37;;;;;;;10.70;6.20;;;;;;;;;;5030658;28;20490;-71
2022/07/09 04:07:04;;;;;;;13.25;7.10;;;;;;;;;;5021806;28;20045;-76
2022/07/09 04:09:30;;;;;;;13.73;7.60;;;;;;;;;;5013974;28;20458;-77
2022/07/09 04:11:56;;;;;;;12.90;6.82;;;;;;;;;;5031731;28;20038;-70
2022/07/09 04:14:23;;;;;;;14.23;6.88;;;;;;;;;;5031946;28;20128;-70
2022/07/09 04:16:49;;;;;;;14.73;7.60;;;;;;;;;;5014344;28;20041;-70
2022/07/09 04:19:15;;;;;;;13.57;7.57;;;;;;;;;;5031914;28;20045;-70
2022/07/09 04:21:41;;;;;;;11.43;7.20;;;;;;;;;;5014029;28;20049;-70
2022/07/09 04:24:07;;;;;;;13.98;7.30;;;;;;;;;;5021736;28;20050;-70
2022/07/09 04:26:33;;;;;;;13.20;7.15;;;;;;;;;;5013936;28;20164;-70
2022/07/09 04:28:59;;;;;;;11.82;7.18;;;;;;;;;;5031887;28;20487;-70
2022/07/09 04:31:25;;;;;;;14.18;6.85;;;;;;;;;;5025970;28;20144;-70
2022/07/09 04:33:51;;;;;;;12.00;7.03;;;;;;;;;;5025824;28;20041;-70
2022/07/09 04:36:17;;;;;;;11.68;6.35;;;;;;;;;;5044741;28;20055;-71
2022/07/09 04:38:43;;;;;;;13.75;7.22;;;;;;;;;;5023849;28;20048;-71
2022/07/09 04:41:10;;;;;;;15.93;7.57;;;;;;;;;;5045235;28;20037;-71
2022/07/09 04:43:36;;;;;;;11.65;6.57;;;;;;;;;;5023940;28;20494;-70
2022/07/09 04:46:02;;;;;;;13.00;6.40;;;;;;;;;;5028129;28;20043;-77
2022/07/09 04:48:28;;;;;;;15.02;6.60;;;;;;;;;;5025992;28;20482;-78
2022/07/09 04:50:54;;;;;;;13.10;6.43;;;;;;;;;;5010242;28;20520;-77
2022/07/09 04:53:20;;;;;;;11.23;6.20;;;;;;;;;;5023814;28;20433;-78
2022/07/09 04:55:46;;;;;;;11.55;6.35;;;;;;;;;;5039353;28;20081;-78
2022/07/09 04:58:12;;;;;;;11.35;6.25;;;;;;;;;;5013985;28;20045;-71
2022/07/09 05:00:38;;;;;;;8.52;5.15;;;;;;;;;;5013609;28;20053;-77
2022/07/09 05:03:04;;;;;;;7.70;5.20;;;;;;;;;;5015571;28;20417;-78
2022/07/09 05:05:31;;;;;;;9.38;5.10;;;;;;;;;;5035000;28;20132;-77
2022/07/09 05:07:57;;;;;;;9.68;5.40;;;;;;;;;;5037861;28;20044;-77
2022/07/09 05:10:23;;;;;;;8.07;4.93;;;;;;;;;;5009576;28;20055;-77
2022/07/09 05:12:50;;;;;;;10.20;5.10;;;;;;;;;;5017278;28;20033;-78
2022/07/09 05:15:16;;;;;;;8.93;4.68;;;;;;;;;;5000927;28;20056;-78
2022/07/09 05:17:43;;;;;;;7.55;4.90;;;;;;;;;;5016881;28;20049;-78
2022/07/09 05:20:10;;;;;;;10.02;5.13;;;;;;;;;;5000975;28;20075;-78
2022/07/09 05:22:37;;;;;;;8.52;5.10;;;;;;;;;;5017046;28;21378;-78
2022/07/09 05:25:04;;;;;;;11.60;4.47;;;;;;;;;;5017061;28;20099;-78
2022/07/09 05:27:30;;;;;;;9.65;4.68;;;;;;;;;;5016878;28;20500;-78
2022/07/09 05:29:56;;;;;;;8.77;5.10;;;;;;;;;;5034419;28;20128;-77
2022/07/09 05:32:22;;;;;;;8.23;4.60;;;;;;;;;;5032729;28;20045;-78
2022/07/09 05:34:49;;;;;;;7.18;4.53;;;;;;;;;;5030156;28;20132;-78
2022/07/09 05:37:15;;;;;;;8.05;4.68;;;;;;;;;;5000615;28;20458;-78
2022/07/09 05:39:41;;;;;;;7.55;4.60;;;;;;;;;;5015917;28;20037;-78
2022/07/09 05:42:07;;;;;;;7.25;4.65;;;;;;;;;;5016156;28;20045;-77
2022/07/09 05:44:34;;;;;;;7.10;4.60;;;;;;;;;;5000050;28;20056;-77
2022/07/09 05:47:01;;;;;;;7.65;4.07;;;;;;;;;;5000577;28;20394;-81
2022/07/09 05:49:28;;;;;;;9.13;4.20;;;;;;;;;;5034012;28;20486;-72
2022/07/09 05:51:54;;;;;;;8.75;4.78;;;;;;;;;;5000703;28;20567;-71
2022/07/09 05:54:20;;;;;;;9.30;4.60;;;;;;;;;;5045511;28;20041;-71
2022/07/09 05:56:46;;;;;;;7.93;4.25;;;;;;;;;;4998883;28;20041;-72
2022/07/09 05:59:12;;;;;;;7.55;3.83;;;;;;;;;;5016461;28;20052;-72
2022/07/09 06:01:42;;;;;;;7.53;3.65;;;;;;;;;;5034095;28;20041;-72
2022/07/09 06:04:09;;;;;;;8.00;4.40;;;;;;;;;;5016269;28;20099;-78
2022/07/09 06:06:35;;;;;;;7.60;4.30;;;;;;;;;;5016229;28;20111;-78
2022/07/09 06:09:01;;;;;;;7.45;4.22;;;;;;;;;;5015806;28;20092;-78
2022/07/09 06:11:28;;;;;;;6.20;3.97;;;;;;;;;;5014376;28;20095;-78
2022/07/09 06:13:54;;;;;;;6.78;4.10;;;;;;;;;;5020355;28;20041;-78
2022/07/09 06:16:20;;;;;;;7.85;3.65;;;;;;;;;;4999493;28;20042;-78
2022/07/09 06:18:46;;;;;;;5.25;3.40;;;;;;;;;;5015672;28;20077;-78
2022/07/09 06:21:12;;;;;;;8.50;3.55;;;;;;;;;;5015907;28;20046;-77
2022/07/09 06:23:38;;;;;;;6.03;3.47;;;;;;;;;;5015676;28;20056;-78
2022/07/09 06:26:04;;;;;;;6.93;3.53;;;;;;;;;;5015435;28;20099;-77
2022/07/09 06:28:30;;;;;;;8.07;3.50;;;;;;;;;;4999237;28;20037;-78
2022/07/09 06:30:57;;;;;;;7.07;3.40;;;;;;;;;;5015706;28;20088;-77
2022/07/09 06:33:23;;;;;;;5.35;3.10;;;;;;;;;;5019898;28;20524;-78
2022/07/09 06:35:49;;;;;;;8.05;3.38;;;;;;;;;;5025253;28;20049;-77
2022/07/09 06:38:15;;;;;;;7.50;3.20;;;;;;;;;;5018204;28;20073;-77
2022/07/09 06:40:41;;;;;;;4.88;2.90;;;;;;;;;;5015525;28;20509;-80
2022/07/09 06:43:09;;;;;;;6.75;3.20;;;;;;;;;;4998995;28;20055;-80
2022/07/09 06:45:36;;;;;;;6.70;3.10;;;;;;;;;;4999375;28;20506;-78
2022/07/09 06:48:02;;;;;;;5.38;2.67;;;;;;;;;;5015523;28;20050;-75
2022/07/09 06:50:28;;;;;;;7.85;2.90;;;;;;;;;;5015003;28;20036;-76
2022/07/09 06:52:54;;;;;;;5.80;2.90;;;;;;;;;;5017171;28;20077;-76
2022/07/09 06:55:20;;;;;;;5.50;2.72;;;;;;;;;;5015288;28;20033;-76
2022/07/09 06:57:46;;;;;;;6.75;2.70;;;;;;;;;;4998582;28;20370;-75
2022/07/09 07:00:13;;;;;;;6.07;2.67;;;;;;;;;;5015002;28;20046;-75
2022/07/09 07:02:39;;;;;;;7.28;2.97;;;;;;;;;;5014721;28;20505;-76
2022/07/09 07:05:06;;;;;;;4.25;2.30;;;;;;;;;;4998895;28;20505;-76
2022/07/09 07:07:32;;;;;;;4.03;2.47;;;;;;;;;;5015117;28;20037;-75
2022/07/09 07:09:58;;;;;;;5.32;2.38;;;;;;;;;;5015370;28;20100;-75
2022/07/09 07:12:24;;;;;;;4.10;2.40;;;;;;;;;;4998805;28;20037;-75
2022/07/09 07:14:50;;;;;;;5.28;2.38;;;;;;;;;;4998713;28;20045;-76
2022/07/09 07:17:16;;;;;;;6.57;2.28;;;;;;;;;;5015070;28;20045;-76
2022/07/09 07:19:43;;;;;;;4.57;2.30;;;;;;;;;;5014578;28;20048;-76
2022/07/09 07:22:09;;;;;;;5.15;2.10;;;;;;;;;;4999885;28;20084;-76
2022/07/09 07:24:35;;;;;;;5.30;2.13;;;;;;;;;;5036163;28;20052;-75
2022/07/09 07:27:01;;;;;;;8.73;2.45;;;;;;;;;;5014040;28;20075;-75
2022/07/09 07:29:27;;;;;;;4.05;1.80;;;;;;;;;;5014738;28;20037;-74
2022/07/09 07:31:54;;;;;;;5.93;1.88;;;;;;;;;;5014411;28;20151;-76
2022/07/09 07:34:22;;;;;;;4.45;2.20;;;;;;;;;;5026521;28;20485;-76
2022/07/09 07:36:49;;;;;;;5.30;1.80;;;;;;;;;;5013754;28;20045;-76
2022/07/09 07:39:15;;;;;;;5.45;2.05;;;;;;;;;;5015167;28;20409;-76
2022/07/09 07:41:41;;;;;;;4.30;2.10;;;;;;;;;;4998067;28;20796;-76
2022/07/09 07:44:07;;;;;;;4.28;2.10;;;;;;;;;;5014581;28;20048;-76
2022/07/09 07:46:33;;;;;;;5.20;1.90;;;;;;;;;;4998263;28;20103;-76
2022/07/09 07:48:59;;;;;;;5.40;1.98;;;;;;;;;;4997990;28;20038;-75
2022/07/09 07:51:25;;;;;;;5.35;1.90;;;;;;;;;;5014720;28;20033;-75
2022/07/09 07:53:51;;;;;;;4.65;1.67;;;;;;;;;;4997612;28;20037;-76
2022/07/09 07:56:17;;;;;;;5.20;2.08;;;;;;;;;;4998277;28;20033;-75
2022/07/09 07:58:44;;;;;;;4.15;1.75;;;;;;;;;;5014587;28;20048;-76
2022/07/09 08:01:10;;;;;;;6.38;2.20;;;;;;;;;;4998146;28;20394;-77
2022/07/09 08:03:36;;;;;;;18.10;6.93;;;;;;;;;;5014237;28;20069;-76
2022/07/09 08:06:02;;;;;;;5.22;2.10;;;;;;;;;;4997882;28;20037;-76
2022/07/09 08:08:28;;;;;;;4.20;2.33;;;;;;;;;;5034577;28;20394;-76
2022/07/09 08:10:54;;;;;;;6.65;2.00;;;;;;;;;;5016269;28;20037;-75
2022/07/09 08:13:20;;;;;;;3.42;1.75;;;;;;;;;;5031065;28;20382;-76
2022/07/09 08:15:46;;;;;;;4.47;1.63;;;;;;;;;;5014109;28;20041;-76
2022/07/09 08:18:13;;;;;;;5.22;1.63;;;;;;;;;;5014409;28;20494;-75
2022/07/09 08:20:40;;;;;;;6.03;1.50;;;;;;;;;;5014430;28;20053;-76
2022/07/09 08:23:06;;;;;;;2.58;1.30;;;;;;;;;;5017209;28;20116;-76
2022/07/09 08:25:33;;;;;;;4.38;1.48;;;;;;;;;;4997815;28;20387;-76
2022/07/09 08:27:59;;;;;;;5.85;1.70;;;;;;;;;;5014086;28;20052;-76
2022/07/09 08:30:25;;;;;;;5.03;2.00;;;;;;;;;;5014022;28;20048;-76
2022/07/09 08:32:51;;;;;;;4.03;1.50;;;;;;;;;;4997508;28;20069;-76
2022/07/09 08:35:17;;;;;;;6.30;1.80;;;;;;;;;;5045680;28;20092;-75
2022/07/09 08:37:43;;;;;;;4.53;1.65;;;;;;;;;;5024508;28;20124;-76
2022/07/09 08:40:09;;;;;;;7.45;1.85;;;;;;;;;;5026235;28;20037;-76
2022/07/09 08:42:36;;;;;;;3.45;1.42;;;;;;;;;;5017925;28;20045;-77
2022/07/09 08:45:02;;;;;;;4.00;1.40;;;;;;;;;;5001132;28;20045;-76
2022/07/09 08:47:30;;;;;;;6.25;1.60;;;;;;;;;;5001832;28;20037;-76
2022/07/09 08:49:57;;;;;;;7.93;1.85;;;;;;;;;;5017481;28;20496;-74
2022/07/09 08:52:25;;;;;;;6.60;1.77;;;;;;;;;;5018655;28;20053;-77
2022/07/09 08:54:55;;;;;;;4.85;1.42;;;;;;;;;;5017239;28;20053;-76
2022/07/09 08:57:21;;;;;;;5.95;1.80;;;;;;;;;;5017447;28;20052;-75
2022/07/09 08:59:48;;;;;;;4.72;1.42;;;;;;;;;;5017509;28;20041;-76
2022/07/09 09:02:14;;;;;;;4.45;1.25;;;;;;;;;;5017629;28;20045;-76
2022/07/09 09:04:43;;;;;;;5.45;1.60;;;;;;;;;;5004007;28;20441;-74
2022/07/09 09:07:13;;;;;;;3.47;1.30;;;;;;;;;;5027325;28;20037;-76
2022/07/09 09:09:40;;;;;;;4.47;1.42;;;;;;;;;;5021525;28;20390;-76
2022/07/09 09:12:06;;;;;;;4.00;1.38;;;;;;;;;;5016983;28;20044;-76
2022/07/09 09:14:32;;;;;;;4.40;1.20;;;;;;;;;;5001138;28;20482;-77
2022/07/09 09:17:11;;;;;;;7.88;1.80;;;;;;;;;;5000993;28;20521;-74
2022/07/09 09:19:37;;;;;;;2.63;1.00;;;;;;;;;;4985585;28;20037;-75
2022/07/09 09:22:04;;;;;;;5.93;1.38;;;;;;;;;;5017815;28;20073;-72
2022/07/09 09:24:30;;;;;;;5.13;1.30;;;;;;;;;;5019665;28;20121;-75
2022/07/09 09:26:59;;;;;;;3.65;1.10;;;;;;;;;;5000683;28;20045;-74
2022/07/09 09:29:26;;;;;;;3.80;1.20;;;;;;;;;;5016746;28;20129;-74
2022/07/09 09:31:52;;;;;;;3.10;1.10;;;;;;;;;;5033132;28;20046;-76
2022/07/09 09:34:19;;;;;;;4.03;1.35;;;;;;;;;;5025620;28;20041;-74
2022/07/09 09:36:46;;;;;;;4.50;1.35;;;;;;;;;;5019317;28;20429;-74
2022/07/09 09:39:13;;;;;;;5.05;1.10;;;;;;;;;;5027798;28;20128;-75
2022/07/09 09:41:40;;;;;;;2.70;1.00;;;;;;;;;;5004000;28;20048;-78
2022/07/09 09:44:09;;;;;;;5.22;1.40;;;;;;;;;;5016600;28;20042;-74
2022/07/09 09:46:37;;;;;;;3.03;1.00;;;;;;;;;;5016603;28;20045;-75
2022/07/09 09:49:06;;;;;;;5.53;1.58;;;;;;;;;;5015793;28;20045;-75
2022/07/09 09:51:34;;;;;;;3.13;0.90;;;;;;;;;;5001499;28;20513;-75
2022/07/09 09:54:01;;;;;;;2.88;1.10;;;;;;;;;;5016584;28;20047;-79
2022/07/09 09:56:28;;;;;;;2.78;1.20;;;;;;;;;;5003934;28;20041;-78
2022/07/09 09:58:55;;;;;;;3.90;1.17;;;;;;;;;;5004869;28;20053;-80
2022/07/09 10:01:21;;;;;;;6.13;1.17;;;;;;;;;;5023585;28;20393;-75
2022/07/09 10:03:47;;;;;;;5.07;1.25;;;;;;;;;;5027985;28;20063;-75
2022/07/09 10:06:14;;;;;;;2.78;0.95;;;;;;;;;;5026760;28;20103;-76
2022/07/09 10:08:40;;;;;;;10.25;1.42;;;;;;;;;;5028503;28;20068;-76
2022/07/09 10:11:06;;;;;;;4.72;1.27;;;;;;;;;;5027188;28;20072;-74
2022/07/09 10:13:32;;;;;;;4.10;1.08;;;;;;;;;;5028229;28;20033;-76
2022/07/09 10:15:59;;;;;;;4.32;0.93;;;;;;;;;;5018742;28;20041;-75
2022/07/09 10:18:25;;;;;;;3.70;0.90;;;;;;;;;;5025029;28;20037;-77
2022/07/09 10:20:59;;;;;;;5.15;1.17;;;;;;;;;;5030719;28;20049;-74
2022/07/09 10:23:26;;;;;;;3.30;1.00;;;;;;;;;;5025788;28;20045;-76
2022/07/09 10:25:55;;;;;;;4.43;1.10;;;;;;;;;;5031147;28;20183;-75
2022/07/09 10:28:24;;;;;;;3.35;0.90;;;;;;;;;;5007450;28;20037;-76
2022/07/09 10:30:53;;;;;;;3.20;1.10;;;;;;;;;;5027803;28;20109;-77
2022/07/09 10:33:19;;;;;;;2.72;1.08;;;;;;;;;;5028307;28;20041;-77
2022/07/09 10:35:47;;;;;;;3.75;1.27;;;;;;;;;;5001401;28;20084;-77
2022/07/09 10:38:14;;;;;;;4.07;1.20;;;;;;;;;;5023164;28;20052;-75
2022/07/09 10:40:41;;;;;;;3.72;1.08;;;;;;;;;;5023983;28;20047;-77
2022/07/09 10:43:07;;;;;;;4.32;1.35;;;;;;;;;;5027506;28;20037;-78
2022/07/09 10:45:46;;;;;;;3.08;1.05;;;;;;;;;;5019647;28;20046;-75
2022/07/09 10:48:14;;;;;;;3.38;0.95;;;;;;;;;;5040305;28;20389;-78
2022/07/09 10:50:42;;;;;;;5.75;1.10;;;;;;;;;;5022211;28;20494;-76
2022/07/09 10:53:08;;;;;;;3.35;1.00;;;;;;;;;;5013287;28;20116;-76
2022/07/09 10:55:35;;;;;;;3.78;1.10;;;;;;;;;;5021091;28;20072;-78
2022/07/09 10:58:02;;;;;;;7.15;1.30;;;;;;;;;;4999468;28;20037;-77
2022/07/09 11:00:32;;;;;;;6.82;1.33;;;;;;;;;;5000102;28;20049;-76
2022/07/09 11:02:59;;;;;;;7.25;1.48;;;;;;;;;;5010650;28;20041;-76
2022/07/09 11:05:26;;;;;;;5.10;1.13;;;;;;;;;;5015948;28;20482;-79
2022/07/09 11:07:59;;;;;;;4.55;1.17;;;;;;;;;;5015203;28;20033;-75
2022/07/09 11:10:27;;;;;;;6.25;1.10;;;;;;;;;;5032947;28;20116;-77
2022/07/09 11:12:53;;;;;;;4.38;1.40;;;;;;;;;;5016019;28;20037;-78
2022/07/09 11:15:20;;;;;;;5.50;1.40;;;;;;;;;;5017466;28;20041;-76
2022/07/09 11:17:56;;;;;;;4.28;1.33;;;;;;;;;;5026132;28;20510;-76
2022/07/09 11:20:22;;;;;;;6.85;1.73;;;;;;;;;;5014774;28;20477;-76
2022/07/09 11:22:48;;;;;;;6.38;1.75;;;;;;;;;;5014992;28;20184;-76
2022/07/09 11:25:18;;;;;;;7.05;1.92;;;;;;;;;;5014351;28;20060;-79
2022/07/09 11:27:44;;;;;;;7.35;1.65;;;;;;;;;;5014864;28;20091;-78
2022/07/09 11:30:17;;;;;;;7.50;1.48;;;;;;;;;;5014081;28;20143;-77
2022/07/09 11:32:43;;;;;;;7.32;1.85;;;;;;;;;;4998475;28;20067;-76
2022/07/09 11:35:10;;;;;;;6.82;1.60;;;;;;;;;;5025601;28;20048;-78
2022/07/09 11:37:36;;;;;;;7.28;1.65;;;;;;;;;;5014744;28;20132;-76
2022/07/09 11:40:02;;;;;;;6.47;1.38;;;;;;;;;;5015082;28;20120;-75
2022/07/09 11:42:29;;;;;;;5.45;1.42;;;;;;;;;;4998097;28;20073;-77
2022/07/09 11:44:59;;;;;;;5.30;1.60;;;;;;;;;;5014206;28;20045;-77
2022/07/09 11:47:52;;;;;;;6.28;1.67;;;;;;;;;;4998448;28;20534;-76
2022/07/09 11:50:19;;;;;;;5.13;1.35;;;;;;;;;;4996988;28;20051;-76
2022/07/09 11:52:46;;;;;;;7.53;1.58;;;;;;;;;;5014494;28;20037;-78
2022/07/09 11:55:13;;;;;;;5.72;1.40;;;;;;;;;;5014159;28;20099;-76
2022/07/09 11:57:39;;;;;;;5.95;1.33;;;;;;;;;;5013931;28;20045;-77
2022/07/09 12:00:07;;;;;;;7.55;1.40;;;;;;;;;;5014567;28;20046;-76
2022/07/09 12:02:37;;;;;;;7.50;1.30;;;;;;;;;;5014071;28;20077;-77
2022/07/09 12:05:05;;;;;;;5.07;1.30;;;;;;;;;;5015610;28;20413;-76
2022/07/09 12:07:31;;;;;;;5.72;1.35;;;;;;;;;;5013723;28;20247;-77
2022/07/09 12:10:08;;;;;;;6.43;1.20;;;;;;;;;;5014833;28;20466;-77
2022/07/09 12:12:35;;;;;;;3.10;0.80;;;;;;;;;;5015836;28;20044;-78
2022/07/09 12:15:02;;;;;;;7.13;1.23;;;;;;;;;;4988709;28;20513;-77
2022/07/09 12:17:29;;;;;;;3.00;1.05;;;;;;;;;;5021162;28;20459;-77
2022/07/09 12:19:55;;;;;;;4.72;1.15;;;;;;;;;;5021091;28;20073;-76
2022/07/09 12:22:25;;;;;;;4.32;1.00;;;;;;;;;;5038112;28;20542;-77
2022/07/09 12:24:52;;;;;;;1.88;0.77;;;;;;;;;;4988920;28;20372;-75
2022/07/09 12:27:19;;;;;;;4.38;0.90;;;;;;;;;;5028021;28;20133;-77
2022/07/09 12:29:46;;;;;;;3.28;0.80;;;;;;;;;;5020734;28;20490;-76
2022/07/09 12:32:12;;;;;;;5.63;1.15;;;;;;;;;;5020878;28;20052;-75
2022/07/09 12:34:38;;;;;;;2.78;0.90;;;;;;;;;;5033844;28;20045;-74
2022/07/09 12:37:04;;;;;;;2.10;0.75;;;;;;;;;;5004536;28;20087;-74
2022/07/09 12:39:30;;;;;;;1.83;0.77;;;;;;;;;;5038246;28;20559;-73
2022/07/09 12:41:58;;;;;;;3.40;0.98;;;;;;;;;;5020586;28;20401;-74
2022/07/09 12:44:24;;;;;;;3.70;0.95;;;;;;;;;;5020559;28;20052;-76
2022/07/09 12:46:51;;;;;;;3.67;0.90;;;;;;;;;;5021354;28;20039;-76
2022/07/09 12:49:17;;;;;;;3.35;0.93;;;;;;;;;;5020080;28;20033;-75
2022/07/09 12:51:43;;;;;;;7.32;1.20;;;;;;;;;;5020487;28;20045;-73
2022/07/09 12:54:09;;;;;;;5.30;1.20;;;;;;;;;;5037868;28;20041;-73
2022/07/09 12:56:36;;;;;;;3.42;0.93;;;;;;;;;;5019974;28;20513;-71
2022/07/09 12:59:02;;;;;;;3.33;0.80;;;;;;;;;;5033787;28;20151;-71
2022/07/09 13:01:28;;;;;;;3.88;0.80;;;;;;;;;;5003836;28;20095;-72
2022/07/09 13:03:54;;;;;;;4.30;1.00;;;;;;;;;;5038173;28;20034;-71
2022/07/09 13:06:31;;;;;;;2.75;0.80;;;;;;;;;;5003572;28;20041;-72
2022/07/09 13:08:57;;;;;;;5.45;1.00;;;;;;;;;;5006051;28;20450;-72
2022/07/09 13:11:23;;;;;;;4.07;0.82;;;;;;;;;;5036411;28;20052;-72
2022/07/09 13:13:49;;;;;;;2.78;0.80;;;;;;;;;;5020363;28;20071;-72
2022/07/09 13:16:15;;;;;;;3.03;0.80;;;;;;;;;;5022409;28;20048;-70
2022/07/09 13:18:41;;;;;;;6.18;1.02;;;;;;;;;;5017580;28;20068;-72
2022/07/09 13:21:07;;;;;;;2.42;0.90;;;;;;;;;;5019262;28;20037;-73
2022/07/09 13:23:34;;;;;;;3.72;0.70;;;;;;;;;;5015514;28;20040;-71
2022/07/09 13:26:00;;;;;;;4.25;0.73;;;;;;;;;;5026540;28;20052;-70
2022/07/09 13:28:27;;;;;;;2.60;0.70;;;;;;;;;;5011173;28;20065;-70
2022/07/09 13:30:53;;;;;;;3.55;0.88;;;;;;;;;;5032012;28;20056;-73
2022/07/09 13:33:19;;;;;;;6.18;1.35;;;;;;;;;;5051364;28;20159;-71
2022/07/09 13:35:45;;;;;;;3.50;0.88;;;;;;;;;;5049694;28;20040;-71
2022/07/09 13:38:11;;;;;;;4.88;1.20;;;;;;;;;;5046078;28;20064;-70
2022/07/09 13:40:37;;;;;;;3.47;0.90;;;;;;;;;;5046953;28;20037;-70
2022/07/09 13:43:03;;;;;;;3.70;0.98;;;;;;;;;;5031507;28;20044;-71
2022/07/09 13:45:29;;;;;;;5.35;1.13;;;;;;;;;;5001911;28;20466;-70
2022/07/09 13:47:56;;;;;;;4.57;1.02;;;;;;;;;;5032251;28;20047;-69
2022/07/09 13:50:22;;;;;;;5.40;0.93;;;;;;;;;;5045835;28;20059;-70
2022/07/09 13:52:49;;;;;;;7.07;0.82;;;;;;;;;;5029950;28;20447;-71
2022/07/09 13:55:15;;;;;;;8.05;1.02;;;;;;;;;;5028968;28;20040;-70
2022/07/09 13:57:41;;;;;;;5.60;1.00;;;;;;;;;;5016199;28;20045;-69
2022/07/09 14:00:08;;;;;;;4.82;1.00;;;;;;;;;;5018697;28;20487;-68
2022/07/09 14:02:34;;;;;;;4.85;1.00;;;;;;;;;;5016301;28;20568;-70
2022/07/09 14:05:01;;;;;;;3.28;0.93;;;;;;;;;;5016341;28;20111;-69
2022/07/09 14:07:27;;;;;;;3.53;1.05;;;;;;;;;;5019905;28;20045;-72
2022/07/09 14:09:53;;;;;;;3.65;1.10;;;;;;;;;;5015770;28;20045;-69
2022/07/09 14:12:20;;;;;;;4.35;0.90;;;;;;;;;;5000156;28;20049;-69
2022/07/09 14:14:47;;;;;;;4.20;0.80;;;;;;;;;;5015284;28;20281;-68
2022/07/09 14:17:13;;;;;;;2.97;0.82;;;;;;;;;;5026866;28;20563;-74
2022/07/09 14:19:39;;;;;;;5.15;1.00;;;;;;;;;;5023171;28;20489;-75
2022/07/09 14:22:05;;;;;;;2.80;0.88;;;;;;;;;;5024646;28;20045;-73
2022/07/09 14:24:32;;;;;;;6.63;1.15;;;;;;;;;;5026415;28;20041;-74
2022/07/09 14:26:58;;;;;;;4.90;1.20;;;;;;;;;;5006041;28;20038;-75
2022/07/09 14:29:24;;;;;;;3.00;0.98;;;;;;;;;;5010694;28;20033;-74
2022/07/09 14:31:51;;;;;;;4.63;1.20;;;;;;;;;;5025683;28;20064;-74
2022/07/09 14:34:17;;;;;;;4.35;1.27;;;;;;;;;;5030712;28;20044;-73